createdAt,value
2023-02-16T07:59:00.543Z,2.70
2023-02-16T08:01:32.118Z,2.80
2023-02-16T08:03:59.498Z,2.90
2023-02-16T08:06:27.083Z,3.00
2023-02-16T08:08:54.346Z,3.10
2023-02-16T08:11:25.326Z,3.20
2023-02-16T08:13:53.116Z,3.30
2023-02-16T08:16:28.902Z,3.30
2023-02-16T08:19:00.213Z,3.40
2023-02-16T08:21:34.483Z,3.50
2023-02-16T08:24:13.174Z,3.60
2023-02-16T08:26:44.706Z,3.70
2023-02-16T08:29:14.916Z,3.70
2023-02-16T08:31:42.635Z,3.80
2023-02-16T08:34:10.711Z,3.80
2023-02-16T08:36:40.182Z,3.90
2023-02-16T08:39:19.007Z,4.00
2023-02-16T08:41:49.877Z,4.10
2023-02-16T08:44:20.345Z,4.10
2023-02-16T08:46:49.516Z,4.30
2023-02-16T08:49:21.924Z,4.40
2023-02-16T08:51:56.905Z,4.50
2023-02-16T08:54:30.487Z,4.60
2023-02-16T08:57:00.015Z,4.70
2023-02-16T08:59:28.838Z,4.80
2023-02-16T09:01:59.125Z,4.90
2023-02-16T09:04:29.270Z,5.00
2023-02-16T09:06:58.563Z,5.20
2023-02-16T09:09:27.402Z,5.30
2023-02-16T09:11:55.185Z,5.40
2023-02-16T09:14:23.114Z,5.50
2023-02-16T09:16:50.605Z,5.70
2023-02-16T09:19:21.757Z,5.80
2023-02-16T09:21:50.964Z,5.90
2023-02-16T09:24:19.102Z,6.10
2023-02-16T09:26:46.594Z,6.30
2023-02-16T09:29:14.834Z,6.40
2023-02-16T09:31:44.267Z,6.60
2023-02-16T09:34:22.607Z,6.70
2023-02-16T09:36:51.016Z,6.90
2023-02-16T09:39:19.150Z,7.10
2023-02-16T09:42:54.088Z,7.30
2023-02-16T09:45:22.849Z,7.50
2023-02-16T09:47:52.148Z,7.80
2023-02-16T09:50:53.824Z,7.90
2023-02-16T09:53:34.853Z,8.10
2023-02-16T09:56:37.806Z,8.30
2023-02-16T10:00:08.498Z,8.50
2023-02-16T10:03:12.207Z,8.80
2023-02-16T10:06:34.377Z,8.90
2023-02-16T10:09:16.479Z,9.20
2023-02-16T10:12:02.262Z,9.50
2023-02-16T10:14:51.225Z,9.60
2023-02-16T10:17:38.433Z,9.80
2023-02-16T10:20:35.973Z,10.10
2023-02-16T10:23:50.387Z,10.10
2023-02-16T10:26:44.173Z,10.40
2023-02-16T10:29:20.697Z,10.60
2023-02-16T10:32:20.807Z,10.80
2023-02-16T10:35:10.905Z,11.00
2023-02-16T10:37:54.697Z,11.20
2023-02-16T10:41:27.992Z,11.40
2023-02-16T10:44:43.836Z,11.60
2023-02-16T10:47:45.907Z,11.90
2023-02-16T10:50:52.133Z,12.10
2023-02-16T10:53:39.186Z,12.40
2023-02-16T10:57:01.040Z,12.50
2023-02-16T10:59:44.553Z,12.70
2023-02-16T11:02:23.686Z,12.90
2023-02-16T11:04:55.940Z,13.00
2023-02-16T11:07:31.313Z,13.20
2023-02-16T11:10:18.181Z,13.40
2023-02-16T11:12:45.519Z,13.60
2023-02-16T11:15:18.942Z,13.70
2023-02-16T11:18:08.674Z,13.90
2023-02-16T11:20:42.226Z,14.10
2023-02-16T11:23:31.808Z,14.30
2023-02-16T11:26:10.525Z,14.50
2023-02-16T11:28:46.647Z,14.70
2023-02-16T11:31:40.297Z,14.90
2023-02-16T11:34:51.175Z,15.10
2023-02-16T11:37:34.104Z,15.30
2023-02-16T11:40:31.012Z,15.40
2023-02-16T11:43:02.035Z,15.70
2023-02-16T11:45:36.806Z,15.90
2023-02-16T11:48:24.765Z,16.00
2023-02-16T11:51:10.667Z,16.20
2023-02-16T11:53:42.624Z,16.40
2023-02-16T11:56:33.023Z,16.50
2023-02-16T11:59:21.177Z,16.70
2023-02-16T12:02:49.035Z,16.90
2023-02-16T12:06:22.203Z,17.10
2023-02-16T12:09:14.144Z,17.30
2023-02-16T12:12:14.723Z,17.50
2023-02-16T12:15:24.889Z,17.60
2023-02-16T12:18:58.416Z,17.80
2023-02-16T12:21:42.389Z,17.90
2023-02-16T12:24:41.277Z,18.10
2023-02-16T12:27:43.174Z,18.10
2023-02-16T12:31:27.516Z,18.30
2023-02-16T12:34:37.714Z,18.40
2023-02-16T12:37:17.352Z,18.60
2023-02-16T12:40:15.161Z,18.50
2023-02-16T12:43:04.102Z,18.70
2023-02-16T12:45:42.289Z,18.60
2023-02-16T12:48:57.451Z,18.80
2023-02-16T12:51:38.251Z,18.80
2023-02-16T12:54:22.419Z,18.70
2023-02-16T12:57:15.858Z,18.60
2023-02-16T13:00:15.038Z,18.80
2023-02-16T13:03:15.500Z,18.80
2023-02-16T13:05:45.978Z,18.90
2023-02-16T13:09:13.905Z,18.90
2023-02-16T13:12:39.351Z,18.90
2023-02-16T13:15:37.181Z,18.80
2023-02-16T13:18:48.960Z,18.90
2023-02-16T13:22:18.325Z,19.00
2023-02-16T13:25:09.924Z,19.10
2023-02-16T13:28:52.657Z,19.10
2023-02-16T13:32:08.910Z,19.00
2023-02-16T13:36:19.588Z,18.70
2023-02-16T13:39:48.843Z,18.70
2023-02-16T13:42:45.155Z,18.70
2023-02-16T13:45:37.084Z,18.60
2023-02-16T13:48:46.380Z,18.60
2023-02-16T13:51:23.696Z,18.60
2023-02-16T13:54:03.908Z,18.50
2023-02-16T13:56:30.990Z,18.40
2023-02-16T13:59:18.580Z,18.40
2023-02-16T14:01:49.332Z,18.40
2023-02-16T14:04:22.547Z,18.30
2023-02-16T14:07:32.142Z,18.20
2023-02-16T14:09:59.543Z,18.10
2023-02-16T14:12:33.829Z,18.10
2023-02-16T14:15:19.311Z,18.10
2023-02-16T14:17:47.304Z,18.00
2023-02-16T14:20:15.768Z,18.00
2023-02-16T14:22:50.818Z,17.90
2023-02-16T14:25:23.975Z,17.80
2023-02-16T14:27:58.578Z,17.90
2023-02-16T14:30:42.531Z,17.80
2023-02-16T14:33:12.732Z,17.70
2023-02-16T14:36:14.281Z,17.70
2023-02-16T14:38:41.461Z,17.50
2023-02-16T14:41:36.811Z,17.50
2023-02-16T14:44:06.926Z,17.40
2023-02-16T14:47:52.819Z,17.30
2023-02-16T14:51:19.463Z,17.30
2023-02-16T14:54:48.517Z,17.30
2023-02-16T14:57:41.304Z,17.30
2023-02-16T15:01:08.648Z,17.00
2023-02-16T15:03:52.747Z,16.80
2023-02-16T15:06:43.061Z,16.80
2023-02-16T15:09:24.618Z,16.40
2023-02-16T15:12:22.878Z,16.10
2023-02-16T15:15:04.681Z,16.10
2023-02-16T15:17:47.163Z,16.20
2023-02-16T15:20:34.915Z,16.30
2023-02-16T15:23:17.653Z,16.30
2023-02-16T15:26:19.941Z,16.20
2023-02-16T15:29:18.657Z,16.20
2023-02-16T15:31:46.686Z,16.30
2023-02-16T15:34:36.185Z,16.30
2023-02-16T15:37:32.874Z,16.20
2023-02-16T15:40:29.789Z,16.00
2023-02-16T15:43:37.512Z,16.10
2023-02-16T15:46:33.090Z,16.10
2023-02-16T15:49:22.289Z,16.10
2023-02-16T15:51:49.933Z,16.10
2023-02-16T15:54:35.642Z,16.10
2023-02-16T15:57:30.885Z,16.10
2023-02-16T16:00:20.869Z,16.00
2023-02-16T16:02:58.354Z,15.90
2023-02-16T16:05:33.103Z,15.80
2023-02-16T16:08:01.716Z,15.80
2023-02-16T16:10:36.881Z,15.80
2023-02-16T16:13:28.726Z,15.80
2023-02-16T16:16:02.140Z,15.80
2023-02-16T16:18:51.068Z,15.70
2023-02-16T16:21:34.182Z,15.70
2023-02-16T16:24:11.743Z,15.70
2023-02-16T16:26:57.829Z,15.60
2023-02-16T16:29:46.789Z,15.60
2023-02-16T16:32:30.179Z,15.60
2023-02-16T16:34:57.805Z,15.60
2023-02-16T16:37:35.853Z,15.50
2023-02-16T16:40:27.693Z,15.50
2023-02-16T16:43:18.350Z,15.50
2023-02-16T16:45:54.054Z,15.50
2023-02-16T16:48:37.193Z,15.40
2023-02-16T16:51:38.235Z,15.40
2023-02-16T16:54:39.845Z,15.30
2023-02-16T16:57:18.482Z,15.30
2023-02-16T16:59:45.776Z,15.30
2023-02-16T17:02:13.189Z,15.30
2023-02-16T17:04:40.464Z,15.30
2023-02-16T17:07:07.919Z,15.30
2023-02-16T17:09:35.265Z,15.30
2023-02-16T17:12:03.392Z,15.30
2023-02-16T17:14:30.722Z,15.20
2023-02-16T17:16:58.451Z,15.30
2023-02-16T17:19:29.354Z,15.30
2023-02-16T17:21:56.763Z,15.20
2023-02-16T17:24:24.159Z,15.20
2023-02-16T17:26:51.514Z,15.20
2023-02-16T17:29:18.899Z,15.20
2023-02-16T17:31:46.287Z,15.10
2023-02-16T17:34:13.697Z,15.10
2023-02-16T17:36:41.168Z,15.20
2023-02-16T17:39:08.501Z,15.00
2023-02-16T17:41:35.788Z,15.00
2023-02-16T17:44:04.186Z,15.00
2023-02-16T17:46:32.588Z,15.00
2023-02-16T17:48:59.898Z,14.90
2023-02-16T17:51:27.374Z,14.90
2023-02-16T17:53:54.775Z,14.80
2023-02-16T17:56:24.692Z,14.80
2023-02-16T17:58:52.323Z,14.70
2023-02-16T18:01:21.345Z,14.70
2023-02-16T18:03:48.990Z,14.70
2023-02-16T18:06:25.047Z,14.70
2023-02-16T18:08:53.377Z,14.60
2023-02-16T18:11:20.679Z,14.60
2023-02-16T18:13:48.337Z,14.60
2023-02-16T18:16:21.757Z,14.50
2023-02-16T18:18:49.154Z,14.60
2023-02-16T18:21:16.532Z,14.50
2023-02-16T18:23:43.891Z,14.50
2023-02-16T18:26:16.517Z,14.40
2023-02-16T18:28:44.723Z,14.40
2023-02-16T18:31:13.061Z,14.30
2023-02-16T18:33:40.562Z,14.20
2023-02-16T18:36:08.987Z,14.20
2023-02-16T18:38:36.542Z,14.10
2023-02-16T18:41:04.735Z,14.10
2023-02-16T18:43:32.108Z,14.10
2023-02-16T18:45:59.587Z,14.00
2023-02-16T18:48:26.935Z,14.00
2023-02-16T18:50:54.241Z,14.00
2023-02-16T18:53:21.546Z,14.00
2023-02-16T18:55:48.873Z,14.00
2023-02-16T18:58:16.393Z,14.00
2023-02-16T19:00:44.099Z,14.00
2023-02-16T19:03:11.577Z,13.90
2023-02-16T19:05:38.883Z,13.90
2023-02-16T19:08:06.707Z,13.90
2023-02-16T19:10:34.255Z,13.80
2023-02-16T19:13:02.243Z,13.80
2023-02-16T19:15:30.087Z,13.80
2023-02-16T19:17:57.786Z,13.70
2023-02-16T19:20:25.620Z,13.70
2023-02-16T19:22:53.166Z,13.70
2023-02-16T19:25:21.274Z,13.70
2023-02-16T19:27:48.822Z,13.80
2023-02-16T19:30:16.424Z,13.70
2023-02-16T19:32:43.860Z,13.70
2023-02-16T19:35:12.431Z,13.70
2023-02-16T19:37:39.931Z,13.60
2023-02-16T19:40:11.104Z,13.70
2023-02-16T19:42:39.894Z,13.60
2023-02-16T19:45:08.644Z,13.70
2023-02-16T19:47:35.951Z,13.60
2023-02-16T19:50:04.067Z,13.60
2023-02-16T19:52:31.483Z,13.60
2023-02-16T19:54:58.803Z,13.50
2023-02-16T19:57:26.165Z,13.50
2023-02-16T19:59:53.470Z,13.40
2023-02-16T20:02:20.855Z,13.40
2023-02-16T20:04:48.215Z,13.40
2023-02-16T20:07:15.576Z,13.30
2023-02-16T20:09:42.888Z,13.30
2023-02-16T20:12:10.261Z,13.20
2023-02-16T20:14:37.554Z,13.10
2023-02-16T20:17:05.075Z,13.10
2023-02-16T20:19:32.390Z,13.10
2023-02-16T20:21:59.728Z,13.10
2023-02-16T20:24:27.066Z,13.00
2023-02-16T20:26:54.471Z,12.90
2023-02-16T20:29:22.094Z,12.80
2023-02-16T20:31:57.940Z,12.80
2023-02-16T20:34:27.579Z,12.70
2023-02-16T20:36:55.210Z,12.70
2023-02-16T20:39:23.571Z,12.70
2023-02-16T20:41:51.010Z,12.80
2023-02-16T20:44:18.386Z,12.80
2023-02-16T20:46:45.913Z,12.70
2023-02-16T20:49:13.589Z,12.70
2023-02-16T20:51:41.354Z,12.80
2023-02-16T20:54:09.428Z,12.80
2023-02-16T20:56:36.744Z,12.80
2023-02-16T20:59:05.118Z,12.80
2023-02-16T21:01:46.533Z,12.80
2023-02-16T21:04:18.861Z,12.70
2023-02-16T21:06:46.994Z,12.70
2023-02-16T21:09:15.845Z,12.70
2023-02-16T21:11:43.949Z,12.60
2023-02-16T21:14:13.058Z,12.70
2023-02-16T21:16:41.118Z,12.60
2023-02-16T21:19:21.006Z,12.60
2023-02-16T21:21:50.009Z,12.50
2023-02-16T21:24:17.451Z,12.40
2023-02-16T21:26:44.922Z,12.40
2023-02-16T21:29:12.694Z,12.40
2023-02-16T21:31:40.187Z,12.40
2023-02-16T21:34:07.549Z,12.40
2023-02-16T21:36:34.905Z,12.30
2023-02-16T21:39:02.989Z,12.30
2023-02-16T21:41:30.686Z,12.30
2023-02-16T21:44:13.653Z,12.30
2023-02-16T21:46:47.716Z,12.20
2023-02-16T21:49:20.190Z,12.20
2023-02-16T21:51:49.024Z,12.20
2023-02-16T21:54:42.218Z,12.10
2023-02-16T21:57:09.529Z,12.10
2023-02-16T21:59:37.137Z,11.90
2023-02-16T22:02:04.502Z,11.90
2023-02-16T22:04:31.811Z,11.90
2023-02-16T22:06:59.095Z,11.90
2023-02-16T22:09:26.415Z,11.80
2023-02-16T22:11:53.775Z,11.80
2023-02-16T22:14:21.090Z,11.80
2023-02-16T22:16:50.726Z,11.80
2023-02-16T22:19:18.903Z,11.80
2023-02-16T22:21:48.259Z,11.80
2023-02-16T22:24:18.503Z,11.80
2023-02-16T22:26:49.234Z,11.70
2023-02-16T22:29:17.564Z,11.60
2023-02-16T22:31:50.240Z,11.60
2023-02-16T22:34:23.986Z,11.60
2023-02-16T22:36:51.698Z,11.50
2023-02-16T22:39:20.361Z,11.50
2023-02-16T22:41:51.289Z,11.50
2023-02-16T22:44:18.656Z,11.40
2023-02-16T22:46:45.978Z,11.40
2023-02-16T22:49:13.284Z,11.40
2023-02-16T22:51:40.613Z,11.30
2023-02-16T22:54:08.477Z,11.30
2023-02-16T22:56:36.076Z,11.30
2023-02-16T22:59:03.592Z,11.30
2023-02-16T23:01:31.574Z,11.30
2023-02-16T23:04:01.485Z,11.20
2023-02-16T23:06:38.162Z,11.20
2023-02-16T23:09:15.628Z,11.20
2023-02-16T23:11:43.012Z,11.20
2023-02-16T23:14:16.517Z,11.10
2023-02-16T23:16:54.781Z,11.10
2023-02-16T23:19:26.849Z,11.10
2023-02-16T23:21:54.976Z,11.10
2023-02-16T23:24:24.068Z,11.20
2023-02-16T23:26:52.692Z,11.10
2023-02-16T23:29:20.686Z,11.10
2023-02-16T23:31:49.098Z,11.10
